KGSP Airport Information

Runway Information
Runway 04 Length 11000 ft width 150 ft
Elevation 964 ft Threshold 0 ft Heading 32
Runway 22 Length 11000 ft Width 150 ft
Elevation 964 ft Threshold 0 ft Heading 212
Airport Frequencies
Type A/D Name GREER APP/ Frequency 120.6 MHZ
Type ATIS Name ATIS Frequency 134.25 MHZ
Type CTAF Name CTAF Frequency 120.1 MHZ
Type GND Name GREER GND Frequency 121.9 MHZ
Type TWR Name GREER TWR Frequency 120.1 MHZ
Type UNIC Name UNICOM Frequency 122.95 MHZ
Airport Navaids
Type NDB Name Greer Frequency 287 KHZ
Airport Weather Information & NOTAM
ADDS - METARS form results

(0154 UTC 05 December 2020)
Data provider http://aviationweather.gov/metar/data/
 
METAR text: KGSP 050151Z 24013G18KT 10SM BKN007 OVC013 11/08 A2983 RMK AO2 RAE31 P0002
Conditions at: KGSP (GREER/SPARTANSBG, SC, US) observed 0151 UTC 05 December 2020
Temperature: 11.0°C (52°F)
Dewpoint: 8.0°C (46°F) [RH = 82%]
Pressure (altimeter): 29.83 inches Hg (1010.2 mb)
Winds: from the WSW (240 degrees) at 15 MPH (13 knots; 6.7 m/s)
gusting to 21 MPH (18 knots; 9.3 m/s)
Visibility: 10 or more miles (16+ km)
Ceiling: 700 feet AGL
Clouds: broken clouds at 700 feet AGL
overcast cloud deck at 1300 feet AGL
Weather: no significant weather observed at this time

METAR text: KGSP 050142Z 22009KT 9SM SCT008 OVC013 11/09 A2983 RMK AO2 RAE31 P0002 T01060089
Conditions at: KGSP (GREER/SPARTANSBG, SC, US) observed 0142 UTC 05 December 2020
Temperature: 10.6°C (51°F)
Dewpoint: 8.9°C (48°F) [RH = 89%]
Pressure (altimeter): 29.83 inches Hg (1010.2 mb)
Winds: from the SW (220 degrees) at 10 MPH (9 knots; 4.6 m/s)
Visibility: 9 miles (14 km)
Ceiling: 1300 feet AGL
Clouds: scattered clouds at 800 feet AGL
overcast cloud deck at 1300 feet AGL
Weather: no significant weather observed at this time

METAR text: KGSP 050129Z 21004KT 5SM -RA BR BKN013 BKN065 OVC075 10/08 A2983 RMK AO2 P0002 T01000083
Conditions at: KGSP (GREER/SPARTANSBG, SC, US) observed 0129 UTC 05 December 2020
Temperature: 10.0°C (50°F)
Dewpoint: 8.3°C (47°F) [RH = 89%]
Pressure (altimeter): 29.83 inches Hg (1010.2 mb)
Winds: from the SSW (210 degrees) at 5 MPH (4 knots; 2.1 m/s)
Visibility: 5 miles ( 8 km)
Ceiling: 1300 feet AGL
Clouds: broken clouds at 1300 feet AGL
broken clouds at 6500 feet AGL
overcast cloud deck at 7500 feet AGL
Weather: -RA BR  (light rain, mist)

Forecast for: KGSP (GREER/SPARTANSBG, SC, US)
Text: KGSP 042331Z 0500/0524 08005KT 3SM -RA BR BKN009 OVC025
Forecast period: 0000 to 0200 UTC 05 December 2020
Forecast type: FROM: standard forecast or significant change
Winds: from the E (80 degrees) at 6 MPH (5 knots; 2.6 m/s)
Visibility: 3 miles (5 km)
Ceiling: 900 feet AGL
Clouds: broken clouds at 900 feet AGL
overcast cloud deck at 2500 feet AGL
Weather: -RA BR  (light rain, mist)
Text: FM050200 25010KT P6SM -RA OVC015
Forecast period: 0200 to 0400 UTC 05 December 2020
Forecast type: FROM: standard forecast or significant change
Winds: from the WSW (250 degrees) at 12 MPH (10 knots; 5.1 m/s)
Visibility: 6 or more miles (10+ km)
Ceiling: 1500 feet AGL
Clouds: overcast cloud deck at 1500 feet AGL
Weather: -RA  (light rain)
Text: FM050400 27011KT P6SM BKN030
Forecast period: 0400 to 0500 UTC 05 December 2020
Forecast type: FROM: standard forecast or significant change
Winds: from the W (270 degrees) at 13 MPH (11 knots; 5.7 m/s)
Visibility: 6 or more miles (10+ km)
Ceiling: 3000 feet AGL
Clouds: broken clouds at 3000 feet AGL
Weather: no significant weather forecast for this period
Text: FM050500 30013G17KT P6SM BKN110
Forecast period: 0500 to 0700 UTC 05 December 2020
Forecast type: FROM: standard forecast or significant change
Winds: from the WNW (300 degrees) at 15 MPH (13 knots; 6.7 m/s)
gusting to 20 MPH (17 knots; 8.7 m/s)
Visibility: 6 or more miles (10+ km)
Ceiling: 11000 feet AGL
Clouds: broken clouds at 11000 feet AGL
Weather: no significant weather forecast for this period
Text: FM050700 31006KT P6SM SCT040
Forecast period: 0700 UTC 05 December 2020 to 0000 UTC 06 December 2020
Forecast type: FROM: standard forecast or significant change
Winds: from the NW (310 degrees) at 7 MPH (6 knots; 3.1 m/s)
Visibility: 6 or more miles (10+ km)
Ceiling: at least 12,000 feet AGL
Clouds: scattered clouds at 4000 feet AGL
Weather: no significant weather forecast for this period